createdAt,value
2023-01-10T00:00:17.503Z,87.87
2023-01-10T00:02:49.751Z,87.66
2023-01-10T00:05:20.017Z,87.72
2023-01-10T00:07:49.602Z,87.54
2023-01-10T00:10:19.401Z,87.65
2023-01-10T00:13:01.439Z,87.81
2023-01-10T00:15:31.033Z,87.46
2023-01-10T00:18:03.188Z,87.53
2023-01-10T00:20:33.117Z,87.70
2023-01-10T00:23:03.810Z,87.91
2023-01-10T00:25:34.300Z,87.76
2023-01-10T00:28:10.857Z,87.94
2023-01-10T00:30:41.011Z,87.85
2023-01-10T00:33:20.036Z,87.78
2023-01-10T00:35:49.791Z,87.57
2023-01-10T00:38:19.549Z,87.55
2023-01-10T00:40:49.383Z,87.58
2023-01-10T00:43:31.500Z,87.76
2023-01-10T00:46:02.803Z,87.51
2023-01-10T00:48:35.013Z,87.79
2023-01-10T00:51:04.812Z,87.61
2023-01-10T00:53:34.568Z,87.65
2023-01-10T00:56:04.176Z,87.57
2023-01-10T00:58:34.070Z,87.39
2023-01-10T01:01:03.732Z,87.29
2023-01-10T01:03:37.026Z,87.26
2023-01-10T01:06:07.764Z,87.24
2023-01-10T01:08:37.725Z,87.11
2023-01-10T01:11:07.534Z,87.11
2023-01-10T01:13:37.124Z,87.00
2023-01-10T01:16:07.453Z,86.86
2023-01-10T01:18:39.677Z,87.01
2023-01-10T01:21:09.363Z,87.10
2023-01-10T01:23:39.424Z,86.98
2023-01-10T01:26:09.033Z,86.97
2023-01-10T01:28:38.787Z,87.07
2023-01-10T01:31:12.067Z,87.28
2023-01-10T01:33:44.482Z,87.02
2023-01-10T01:36:14.739Z,87.13
2023-01-10T01:38:44.665Z,87.26
2023-01-10T01:41:26.952Z,87.16
2023-01-10T01:44:04.540Z,86.91
2023-01-10T01:46:34.886Z,87.00
2023-01-10T01:49:08.535Z,86.91
2023-01-10T01:51:38.273Z,86.97
2023-01-10T01:54:12.115Z,86.98
2023-01-10T01:56:43.131Z,86.75
2023-01-10T01:59:15.059Z,86.61
2023-01-10T02:01:47.361Z,86.61
2023-01-10T02:04:22.042Z,86.49
2023-01-10T02:06:54.058Z,86.50
2023-01-10T02:09:27.851Z,86.63
2023-01-10T02:11:57.595Z,86.42
2023-01-10T02:14:27.894Z,86.51
2023-01-10T02:16:57.449Z,86.43
2023-01-10T02:19:37.076Z,86.40
2023-01-10T02:22:45.449Z,86.16
2023-01-10T02:25:47.453Z,86.08
2023-01-10T02:28:41.916Z,86.33
2023-01-10T02:31:21.024Z,86.24
2023-01-10T02:33:58.509Z,86.41
2023-01-10T02:36:36.208Z,85.99
2023-01-10T02:39:09.454Z,86.38
2023-01-10T02:41:44.912Z,86.33
2023-01-10T02:44:19.723Z,86.47
2023-01-10T02:46:49.871Z,86.37
2023-01-10T02:49:22.090Z,86.46
2023-01-10T02:51:51.687Z,86.31
2023-01-10T02:54:22.888Z,86.17
2023-01-10T02:57:18.484Z,86.36
2023-01-10T03:00:07.020Z,86.18
2023-01-10T03:02:46.791Z,85.88
2023-01-10T03:05:29.122Z,85.84
2023-01-10T03:08:05.820Z,85.62
2023-01-10T03:10:39.486Z,85.88
2023-01-10T03:13:13.293Z,85.80
2023-01-10T03:15:43.857Z,85.80
2023-01-10T03:18:16.673Z,85.87
2023-01-10T03:20:50.939Z,85.78
2023-01-10T03:23:21.402Z,85.75
2023-01-10T03:25:51.741Z,86.16
2023-01-10T03:28:24.379Z,85.95
2023-01-10T03:30:55.500Z,86.00
2023-01-10T03:33:28.342Z,85.96
2023-01-10T03:36:10.366Z,86.07
2023-01-10T03:38:45.162Z,85.79
2023-01-10T03:41:17.906Z,85.68
2023-01-10T03:44:02.417Z,85.45
2023-01-10T03:46:33.844Z,85.48
2023-01-10T03:49:05.948Z,85.18
2023-01-10T03:51:39.165Z,85.08
2023-01-10T03:54:08.801Z,85.13
2023-01-10T03:56:47.591Z,85.28
2023-01-10T03:59:17.248Z,85.61
2023-01-10T04:01:47.055Z,85.56
2023-01-10T04:04:16.814Z,85.73
2023-01-10T04:06:49.656Z,85.83
2023-01-10T04:09:19.233Z,85.83
2023-01-10T04:11:48.785Z,86.09
2023-01-10T04:14:18.350Z,86.21
2023-01-10T04:16:48.125Z,86.36
2023-01-10T04:19:17.680Z,86.33
2023-01-10T04:21:49.838Z,86.67
2023-01-10T04:24:19.535Z,86.67
2023-01-10T04:26:49.136Z,86.51
2023-01-10T04:29:18.691Z,86.25
2023-01-10T04:31:48.666Z,86.60
2023-01-10T04:34:20.199Z,86.41
2023-01-10T04:36:52.350Z,86.49
2023-01-10T04:39:21.937Z,86.27
2023-01-10T04:41:51.785Z,86.24
2023-01-10T04:44:21.442Z,85.92
2023-01-10T04:46:50.992Z,85.75
2023-01-10T04:49:20.624Z,85.68
2023-01-10T04:51:52.746Z,85.56
2023-01-10T04:54:23.199Z,85.29
2023-01-10T04:56:52.774Z,85.49
2023-01-10T04:59:22.605Z,85.42
2023-01-10T05:01:52.650Z,85.38
2023-01-10T05:04:22.454Z,84.97
2023-01-10T05:06:54.608Z,84.95
2023-01-10T05:09:24.193Z,84.96
2023-01-10T05:11:53.795Z,84.59
2023-01-10T05:14:23.418Z,84.67
2023-01-10T05:16:53.207Z,84.28
2023-01-10T05:19:22.844Z,84.35
2023-01-10T05:21:56.288Z,84.38
2023-01-10T05:24:25.885Z,84.15
2023-01-10T05:26:55.494Z,83.98
2023-01-10T05:29:25.289Z,83.95
2023-01-10T05:31:55.081Z,83.93
2023-01-10T05:34:24.811Z,83.97
2023-01-10T05:36:57.056Z,83.64
2023-01-10T05:39:26.640Z,83.85
2023-01-10T05:41:56.245Z,83.91
2023-01-10T05:44:25.828Z,83.91
2023-01-10T05:46:55.412Z,83.66
2023-01-10T05:49:24.990Z,83.64
2023-01-10T05:51:57.271Z,83.64
2023-01-10T05:54:26.866Z,83.92
2023-01-10T05:56:56.453Z,84.05
2023-01-10T05:59:28.327Z,83.94
2023-01-10T06:01:58.247Z,84.04
2023-01-10T06:04:27.879Z,84.25
2023-01-10T06:07:00.112Z,84.35
2023-01-10T06:09:29.704Z,84.48
2023-01-10T06:11:59.419Z,84.82
2023-01-10T06:14:29.051Z,84.67
2023-01-10T06:16:58.616Z,84.53
2023-01-10T06:19:28.207Z,84.33
2023-01-10T06:22:00.404Z,83.92
2023-01-10T06:24:30.250Z,83.82
2023-01-10T06:26:59.973Z,83.63
2023-01-10T06:29:29.854Z,83.40
2023-01-10T06:31:59.638Z,83.13
2023-01-10T06:34:29.223Z,82.92
2023-01-10T06:37:01.399Z,82.73
2023-01-10T06:39:31.093Z,82.86
2023-01-10T06:42:00.690Z,82.56
2023-01-10T06:44:30.268Z,82.57
2023-01-10T06:46:59.841Z,82.61
2023-01-10T06:49:30.015Z,82.55
2023-01-10T06:52:02.172Z,82.29
2023-01-10T06:54:31.774Z,82.46
2023-01-10T06:57:01.423Z,82.28
2023-01-10T06:59:31.011Z,82.26
2023-01-10T07:02:00.723Z,82.25
2023-01-10T07:04:30.397Z,82.30
2023-01-10T07:07:02.611Z,82.27
2023-01-10T07:09:32.366Z,82.39
2023-01-10T07:12:01.941Z,82.22
2023-01-10T07:14:31.531Z,82.18
2023-01-10T07:17:01.144Z,81.85
2023-01-10T07:19:30.782Z,81.85
2023-01-10T07:22:03.217Z,81.50
2023-01-10T07:24:32.854Z,81.51
2023-01-10T07:27:02.472Z,81.71
2023-01-10T07:29:32.181Z,81.47
2023-01-10T07:32:01.945Z,81.77
2023-01-10T07:34:31.608Z,81.65
2023-01-10T07:37:04.255Z,81.78
2023-01-10T07:39:34.350Z,81.55
2023-01-10T07:42:04.090Z,81.42
2023-01-10T07:44:34.755Z,81.56
2023-01-10T07:47:07.144Z,81.41
2023-01-10T07:49:36.746Z,81.17
2023-01-10T07:52:10.228Z,81.20
2023-01-10T07:54:39.834Z,81.06
2023-01-10T07:57:09.517Z,81.02
2023-01-10T07:59:39.079Z,80.84
2023-01-10T08:02:08.951Z,80.89
2023-01-10T08:04:38.680Z,81.09
2023-01-10T08:07:10.902Z,80.97
2023-01-10T08:09:40.530Z,80.76
2023-01-10T08:12:10.250Z,80.93
2023-01-10T08:14:39.907Z,80.99
2023-01-10T08:17:10.195Z,80.89
2023-01-10T08:19:40.201Z,80.95
2023-01-10T08:22:12.378Z,80.99
2023-01-10T08:24:42.044Z,80.83
2023-01-10T08:27:11.640Z,81.06
2023-01-10T08:29:42.116Z,81.06
2023-01-10T08:32:11.957Z,81.17
2023-01-10T08:34:41.656Z,81.06
2023-01-10T08:37:14.445Z,81.00
2023-01-10T08:39:44.070Z,80.99
2023-01-10T08:42:14.036Z,80.89
2023-01-10T08:44:43.659Z,80.52
2023-01-10T08:47:13.336Z,80.65
2023-01-10T08:49:42.935Z,80.33
2023-01-10T08:52:15.147Z,80.26
2023-01-10T08:54:44.725Z,80.10
2023-01-10T08:57:14.362Z,80.00
2023-01-10T08:59:44.074Z,79.99
2023-01-10T09:02:15.930Z,79.67
2023-01-10T09:04:45.647Z,79.31
2023-01-10T09:07:17.869Z,79.33
2023-01-10T09:09:47.517Z,79.08
2023-01-10T09:12:29.712Z,78.75
2023-01-10T09:14:59.325Z,78.57
2023-01-10T09:17:28.903Z,78.04
2023-01-10T09:19:58.816Z,77.80
2023-01-10T09:22:31.012Z,77.65
2023-01-10T09:25:00.888Z,77.66
2023-01-10T09:27:30.501Z,77.69
2023-01-10T09:30:00.111Z,76.93
2023-01-10T09:32:29.718Z,76.21
2023-01-10T09:34:59.393Z,75.43
2023-01-10T09:37:33.733Z,74.99
2023-01-10T09:40:03.448Z,74.65
2023-01-10T09:43:03.350Z,73.14
2023-01-10T09:45:38.671Z,72.34
2023-01-10T09:48:09.911Z,71.45
2023-01-10T09:50:48.276Z,70.21
2023-01-10T09:53:24.028Z,69.57
2023-01-10T09:55:56.359Z,68.75
2023-01-10T09:58:29.596Z,68.26
2023-01-10T10:01:00.687Z,68.18
2023-01-10T10:03:34.455Z,68.04
2023-01-10T10:06:12.017Z,67.87
2023-01-10T10:08:46.184Z,67.83
2023-01-10T10:11:39.787Z,67.43
2023-01-10T10:14:17.480Z,67.27
2023-01-10T10:16:58.656Z,67.19
2023-01-10T10:19:34.990Z,67.25
2023-01-10T10:22:10.843Z,67.86
2023-01-10T10:24:53.813Z,68.24
2023-01-10T10:27:25.671Z,68.61
2023-01-10T10:30:16.658Z,69.26
2023-01-10T10:33:07.246Z,69.61
2023-01-10T10:35:39.978Z,70.17
2023-01-10T10:38:15.424Z,70.03
2023-01-10T10:40:48.617Z,70.53
2023-01-10T10:43:21.985Z,70.32
2023-01-10T10:45:55.580Z,70.27
2023-01-10T10:48:28.833Z,70.54
2023-01-10T10:51:07.193Z,70.57
2023-01-10T10:53:37.727Z,70.18
2023-01-10T10:56:16.229Z,70.21
2023-01-10T10:58:47.892Z,70.25
2023-01-10T11:01:18.491Z,70.21
2023-01-10T11:03:50.565Z,70.01
2023-01-10T11:06:21.836Z,69.95
2023-01-10T11:08:52.957Z,70.16
2023-01-10T11:11:30.174Z,70.04
2023-01-10T11:14:01.383Z,70.09
2023-01-10T11:16:33.676Z,70.10
2023-01-10T11:19:20.239Z,69.85
2023-01-10T11:21:55.604Z,69.96
2023-01-10T11:24:33.014Z,69.82
2023-01-10T11:27:08.006Z,69.40
2023-01-10T11:29:42.294Z,69.79
2023-01-10T11:32:15.532Z,69.55
2023-01-10T11:34:53.797Z,69.70
2023-01-10T11:37:29.044Z,69.76
2023-01-10T11:40:18.906Z,69.38
2023-01-10T11:42:51.111Z,69.36
2023-01-10T11:45:33.223Z,69.14
2023-01-10T11:48:11.372Z,69.32
2023-01-10T11:50:46.059Z,69.34
2023-01-10T11:53:34.825Z,69.13
2023-01-10T11:56:04.825Z,69.34
2023-01-10T11:58:38.518Z,69.18
2023-01-10T12:01:08.774Z,69.06
2023-01-10T12:03:40.909Z,68.90
2023-01-10T12:06:12.567Z,68.76
2023-01-10T12:08:43.106Z,68.90
2023-01-10T12:11:27.492Z,68.42
2023-01-10T12:14:01.211Z,68.21
2023-01-10T12:16:31.997Z,68.12
2023-01-10T12:19:02.861Z,67.81
2023-01-10T12:21:44.042Z,67.73
2023-01-10T12:24:20.449Z,67.30
2023-01-10T12:26:52.022Z,67.38
2023-01-10T12:29:28.412Z,67.11
2023-01-10T12:31:59.004Z,66.73
2023-01-10T12:34:30.515Z,66.85
2023-01-10T12:37:07.887Z,66.80
2023-01-10T12:39:41.363Z,66.73
2023-01-10T12:42:32.550Z,66.15
2023-01-10T12:45:08.083Z,66.20
2023-01-10T12:47:46.090Z,66.14
2023-01-10T12:50:19.823Z,66.08
2023-01-10T12:52:52.547Z,66.28
2023-01-10T12:55:23.770Z,65.83
2023-01-10T12:57:56.882Z,65.63
2023-01-10T13:00:37.689Z,65.24
2023-01-10T13:03:14.658Z,65.96
2023-01-10T13:05:45.426Z,65.62
2023-01-10T13:08:16.557Z,65.94
2023-01-10T13:10:47.940Z,65.82
2023-01-10T13:13:21.746Z,65.95
2023-01-10T13:15:57.237Z,65.57
2023-01-10T13:18:29.282Z,65.70
2023-01-10T13:21:08.867Z,65.79
2023-01-10T13:23:41.645Z,65.67
2023-01-10T13:26:12.219Z,65.81
2023-01-10T13:28:44.204Z,65.71
2023-01-10T13:31:28.262Z,65.78
2023-01-10T13:33:59.516Z,66.05
2023-01-10T13:36:30.840Z,65.96
2023-01-10T13:39:02.272Z,65.81
2023-01-10T13:42:19.835Z,65.92
2023-01-10T13:45:17.200Z,66.00
2023-01-10T13:48:10.670Z,66.04
2023-01-10T13:51:15.784Z,65.96
2023-01-10T13:53:46.887Z,66.36
2023-01-10T13:56:32.398Z,66.17
2023-01-10T13:59:14.618Z,65.85
2023-01-10T14:01:57.243Z,65.91
2023-01-10T14:04:29.389Z,65.82
2023-01-10T14:07:03.926Z,65.65
2023-01-10T14:09:44.240Z,65.66
2023-01-10T14:12:36.784Z,65.88
2023-01-10T14:15:10.807Z,65.72
2023-01-10T14:17:41.027Z,65.89
2023-01-10T14:20:25.630Z,66.00
2023-01-10T14:23:07.363Z,66.13
2023-01-10T14:25:38.912Z,66.29
2023-01-10T14:28:19.794Z,66.26
2023-01-10T14:31:00.222Z,66.37
2023-01-10T14:33:30.578Z,66.40
2023-01-10T14:36:02.714Z,66.53
2023-01-10T14:38:37.428Z,66.89
2023-01-10T14:41:09.294Z,66.80
2023-01-10T14:43:44.300Z,66.83
2023-01-10T14:46:16.689Z,66.64
2023-01-10T14:48:51.583Z,66.91
2023-01-10T14:51:24.217Z,66.62
2023-01-10T14:54:01.917Z,66.83
2023-01-10T14:56:32.738Z,66.74
2023-01-10T14:59:02.376Z,67.04
2023-01-10T15:01:33.400Z,66.96
2023-01-10T15:04:03.119Z,67.03
2023-01-10T15:06:32.733Z,67.05
2023-01-10T15:09:07.516Z,67.08
2023-01-10T15:11:37.150Z,66.84
2023-01-10T15:14:10.993Z,67.04
2023-01-10T15:16:40.631Z,67.06
2023-01-10T15:19:14.934Z,67.11
2023-01-10T15:21:45.221Z,67.23
2023-01-10T15:24:38.881Z,67.52
2023-01-10T15:27:09.948Z,67.46
2023-01-10T15:29:44.714Z,67.72
2023-01-10T15:32:18.367Z,67.45
2023-01-10T15:34:51.540Z,67.71
2023-01-10T15:37:25.919Z,67.80
2023-01-10T15:39:58.666Z,67.95
2023-01-10T15:42:28.656Z,67.81
2023-01-10T15:44:58.376Z,68.26
2023-01-10T15:47:37.875Z,68.08
2023-01-10T15:50:21.816Z,68.32
2023-01-10T15:52:52.411Z,68.54
2023-01-10T15:55:46.669Z,68.93
2023-01-10T15:58:26.078Z,69.00
2023-01-10T16:00:56.693Z,69.56
2023-01-10T16:03:30.448Z,69.80
2023-01-10T16:06:02.203Z,70.35
2023-01-10T16:08:36.570Z,71.09
2023-01-10T16:11:10.977Z,71.26
2023-01-10T16:13:37.973Z,71.82
2023-01-10T16:16:11.975Z,72.47
2023-01-10T16:18:42.127Z,72.77
2023-01-10T16:21:13.842Z,73.28
2023-01-10T16:23:47.221Z,73.93
2023-01-10T16:26:19.409Z,74.76
2023-01-10T16:28:49.313Z,75.28
2023-01-10T16:31:19.021Z,76.08
2023-01-10T16:33:49.322Z,76.71
2023-01-10T16:36:20.936Z,77.17
2023-01-10T16:38:50.774Z,77.99
2023-01-10T16:41:35.429Z,78.53
2023-01-10T16:44:05.352Z,79.03
2023-01-10T16:46:35.089Z,79.63
2023-01-10T16:49:06.605Z,80.16
2023-01-10T16:51:36.238Z,80.25
2023-01-10T16:54:06.059Z,80.82
2023-01-10T16:56:38.218Z,81.45
2023-01-10T16:59:07.871Z,81.75
2023-01-10T17:01:40.765Z,82.32
2023-01-10T17:04:11.346Z,82.58
2023-01-10T17:06:41.775Z,83.20
2023-01-10T17:09:14.428Z,83.66
2023-01-10T17:11:46.573Z,84.07
2023-01-10T17:14:17.269Z,84.25
2023-01-10T17:16:47.882Z,85.14
2023-01-10T17:19:17.929Z,85.52
2023-01-10T17:21:47.501Z,85.90
2023-01-10T17:24:17.187Z,86.35
2023-01-10T17:26:49.352Z,86.63
2023-01-10T17:29:18.937Z,86.96
2023-01-10T17:31:48.525Z,87.29
2023-01-10T17:34:18.278Z,87.54
2023-01-10T17:36:47.884Z,87.88
2023-01-10T17:39:18.162Z,88.23
2023-01-10T17:41:50.340Z,88.61
2023-01-10T17:44:19.895Z,88.71
2023-01-10T17:46:49.658Z,89.17
2023-01-10T17:49:19.268Z,89.45
2023-01-10T17:51:48.823Z,89.80
2023-01-10T17:54:18.470Z,90.14
2023-01-10T17:56:50.646Z,90.52
2023-01-10T17:59:20.414Z,90.91
2023-01-10T18:01:50.166Z,91.07
2023-01-10T18:04:19.807Z,91.41
2023-01-10T18:06:50.220Z,91.76
2023-01-10T18:09:19.796Z,91.81
2023-01-10T18:11:51.931Z,92.02
2023-01-10T18:14:34.014Z,92.10
2023-01-10T18:17:03.653Z,92.61
2023-01-10T18:19:33.295Z,92.76
2023-01-10T18:22:22.950Z,93.06
2023-01-10T18:24:54.098Z,93.31
2023-01-10T18:27:27.715Z,93.35
2023-01-10T18:29:57.305Z,93.61
2023-01-10T18:32:27.338Z,93.50
2023-01-10T18:34:56.970Z,93.71
2023-01-10T18:37:26.563Z,93.92
2023-01-10T18:39:56.136Z,94.10
2023-01-10T18:42:28.304Z,94.43
2023-01-10T18:44:57.849Z,94.27
2023-01-10T18:47:27.427Z,94.41
2023-01-10T18:49:57.165Z,94.58
2023-01-10T18:52:26.743Z,94.92
2023-01-10T18:54:56.350Z,95.01
2023-01-10T18:57:28.617Z,94.94
2023-01-10T18:59:58.682Z,95.04
2023-01-10T19:02:28.272Z,95.26
2023-01-10T19:04:57.861Z,95.38
2023-01-10T19:07:27.656Z,95.41
2023-01-10T19:09:57.231Z,95.66
2023-01-10T19:12:29.579Z,95.73
2023-01-10T19:15:00.402Z,95.71
2023-01-10T19:17:34.260Z,95.77
2023-01-10T19:20:04.021Z,95.96
2023-01-10T19:22:33.584Z,96.05
2023-01-10T19:25:03.171Z,96.02
2023-01-10T19:27:35.537Z,96.11
2023-01-10T19:30:05.387Z,96.19
2023-01-10T19:32:38.249Z,96.18
2023-01-10T19:35:08.956Z,96.28
2023-01-10T19:37:38.533Z,96.18
2023-01-10T19:40:10.166Z,96.39
2023-01-10T19:42:42.309Z,96.48
2023-01-10T19:45:12.337Z,96.36
2023-01-10T19:47:41.915Z,96.58
2023-01-10T19:50:13.069Z,96.57
2023-01-10T19:52:43.640Z,96.30
2023-01-10T19:55:13.288Z,96.37
2023-01-10T19:57:45.451Z,96.49
2023-01-10T20:00:16.020Z,96.53
2023-01-10T20:02:45.712Z,96.18
2023-01-10T20:05:15.346Z,96.41
2023-01-10T20:07:44.907Z,96.28
2023-01-10T20:10:14.489Z,96.21
2023-01-10T20:12:46.663Z,96.08
2023-01-10T20:15:16.517Z,96.11
2023-01-10T20:17:46.079Z,96.23
2023-01-10T20:20:16.767Z,96.28
2023-01-10T20:22:46.347Z,96.26
2023-01-10T20:25:15.950Z,96.28
2023-01-10T20:27:48.123Z,96.46
2023-01-10T20:30:18.797Z,96.50
2023-01-10T20:32:48.653Z,96.49
2023-01-10T20:35:22.010Z,96.56
2023-01-10T20:37:51.629Z,96.52
2023-01-10T20:40:22.995Z,96.62
2023-01-10T20:42:55.165Z,96.53
2023-01-10T20:45:24.777Z,96.55
2023-01-10T20:47:54.354Z,96.88
2023-01-10T20:50:24.023Z,96.79
2023-01-10T20:52:53.615Z,96.73
2023-01-10T20:55:23.175Z,96.69
2023-01-10T20:57:55.444Z,96.90
2023-01-10T21:00:25.372Z,97.07
2023-01-10T21:02:54.964Z,96.87
2023-01-10T21:05:24.559Z,96.91
2023-01-10T21:07:54.452Z,97.04
2023-01-10T21:10:24.350Z,96.85
2023-01-10T21:12:56.501Z,96.77
2023-01-10T21:15:26.083Z,97.08
2023-01-10T21:17:55.631Z,97.02
2023-01-10T21:20:27.787Z,96.99
2023-01-10T21:22:59.903Z,97.07
2023-01-10T21:25:29.862Z,96.92
2023-01-10T21:28:02.016Z,96.74
2023-01-10T21:30:31.592Z,96.73
2023-01-10T21:33:02.450Z,96.75
2023-01-10T21:35:32.037Z,96.68
2023-01-10T21:38:01.594Z,96.55
2023-01-10T21:40:32.099Z,96.52
2023-01-10T21:43:04.427Z,96.37
2023-01-10T21:45:34.030Z,96.60
2023-01-10T21:48:03.603Z,96.53
2023-01-10T21:50:33.773Z,96.37
2023-01-10T21:53:03.430Z,96.55
2023-01-10T21:55:33.032Z,96.29
2023-01-10T21:58:05.218Z,96.35
2023-01-10T22:00:35.203Z,96.09
2023-01-10T22:03:05.270Z,95.83
2023-01-10T22:05:34.950Z,95.90
2023-01-10T22:08:04.544Z,95.73
2023-01-10T22:10:34.151Z,95.83
2023-01-10T22:13:06.301Z,95.68
2023-01-10T22:15:37.910Z,95.92
2023-01-10T22:18:07.626Z,95.66
2023-01-10T22:20:37.182Z,95.62
2023-01-10T22:23:06.801Z,95.70
2023-01-10T22:25:36.434Z,95.54
2023-01-10T22:28:08.604Z,95.38
2023-01-10T22:30:38.252Z,95.31
2023-01-10T22:33:07.818Z,95.35
2023-01-10T22:35:37.400Z,95.14
2023-01-10T22:38:06.986Z,94.87
2023-01-10T22:40:37.372Z,94.95
2023-01-10T22:43:09.517Z,94.67
2023-01-10T22:45:43.299Z,94.51
2023-01-10T22:48:13.428Z,94.21
2023-01-10T22:50:50.401Z,94.00
2023-01-10T22:53:19.966Z,94.05
2023-01-10T22:55:49.551Z,93.59
2023-01-10T22:58:21.710Z,93.55
2023-01-10T23:00:51.387Z,93.25
2023-01-10T23:03:20.948Z,93.15
2023-01-10T23:05:50.520Z,92.83
2023-01-10T23:08:20.172Z,92.75
2023-01-10T23:10:50.771Z,92.70
2023-01-10T23:13:23.219Z,92.59
2023-01-10T23:15:58.855Z,92.60
2023-01-10T23:18:28.928Z,92.26
2023-01-10T23:20:59.065Z,92.18
2023-01-10T23:23:29.490Z,92.22
2023-01-10T23:26:06.017Z,91.85
2023-01-10T23:28:39.629Z,91.70
2023-01-10T23:31:10.155Z,91.33
2023-01-10T23:33:40.051Z,91.36
2023-01-10T23:36:10.644Z,91.15
2023-01-10T23:38:40.482Z,91.06
2023-01-10T23:41:10.546Z,90.82
2023-01-10T23:43:42.836Z,90.91
2023-01-10T23:46:12.603Z,90.71
2023-01-10T23:48:43.240Z,90.90
2023-01-10T23:51:12.879Z,90.89
2023-01-10T23:53:43.032Z,90.82
2023-01-10T23:56:14.159Z,90.76
2023-01-10T23:58:46.371Z,90.69
